sensor_id;sensor_type;location;lat;lon;timestamp;P1;durP1;ratioP1;P2;durP2;ratioP2
21979;SDS011;11154;48.558;9.234;2023-06-22T00:00:18;8.75;;;5.47;;
21979;SDS011;11154;48.558;9.234;2023-06-22T00:02:21;12.35;;;6.55;;
21979;SDS011;11154;48.558;9.234;2023-06-22T00:04:23;8.30;;;6.28;;
21979;SDS011;11154;48.558;9.234;2023-06-22T00:06:26;7.85;;;5.57;;
21979;SDS011;11154;48.558;9.234;2023-06-22T00:08:28;9.43;;;6.15;;
21979;SDS011;11154;48.558;9.234;2023-06-22T00:10:30;7.53;;;6.00;;
21979;SDS011;11154;48.558;9.234;2023-06-22T00:12:31;12.23;;;6.38;;
21979;SDS011;11154;48.558;9.234;2023-06-22T00:14:33;10.63;;;6.50;;
21979;SDS011;11154;48.558;9.234;2023-06-22T00:16:34;10.07;;;5.78;;
21979;SDS011;11154;48.558;9.234;2023-06-22T00:18:36;8.75;;;6.38;;
21979;SDS011;11154;48.558;9.234;2023-06-22T00:20:37;11.65;;;6.80;;
21979;SDS011;11154;48.558;9.234;2023-06-22T00:22:41;8.95;;;6.60;;
21979;SDS011;11154;48.558;9.234;2023-06-22T00:24:43;8.38;;;6.20;;
21979;SDS011;11154;48.558;9.234;2023-06-22T00:26:44;11.93;;;7.07;;
21979;SDS011;11154;48.558;9.234;2023-06-22T00:28:46;12.40;;;6.93;;
21979;SDS011;11154;48.558;9.234;2023-06-22T00:30:48;9.63;;;6.28;;
21979;SDS011;11154;48.558;9.234;2023-06-22T00:32:50;9.68;;;6.10;;
21979;SDS011;11154;48.558;9.234;2023-06-22T00:34:52;9.50;;;6.43;;
21979;SDS011;11154;48.558;9.234;2023-06-22T00:36:53;11.27;;;6.53;;
21979;SDS011;11154;48.558;9.234;2023-06-22T00:38:56;10.68;;;6.30;;
21979;SDS011;11154;48.558;9.234;2023-06-22T00:40:58;10.23;;;5.88;;
21979;SDS011;11154;48.558;9.234;2023-06-22T00:43:00;7.57;;;5.75;;
21979;SDS011;11154;48.558;9.234;2023-06-22T00:45:01;10.02;;;7.00;;
21979;SDS011;11154;48.558;9.234;2023-06-22T00:47:03;9.45;;;6.68;;
21979;SDS011;11154;48.558;9.234;2023-06-22T00:49:06;11.82;;;6.45;;
21979;SDS011;11154;48.558;9.234;2023-06-22T00:51:08;8.43;;;6.25;;
21979;SDS011;11154;48.558;9.234;2023-06-22T00:53:10;8.30;;;6.45;;
21979;SDS011;11154;48.558;9.234;2023-06-22T00:55:13;11.38;;;6.65;;
21979;SDS011;11154;48.558;9.234;2023-06-22T00:57:17;7.88;;;5.85;;
21979;SDS011;11154;48.558;9.234;2023-06-22T00:59:21;14.43;;;6.82;;
21979;SDS011;11154;48.558;9.234;2023-06-22T01:01:23;11.10;;;6.95;;
21979;SDS011;11154;48.558;9.234;2023-06-22T01:03:25;10.80;;;6.38;;
21979;SDS011;11154;48.558;9.234;2023-06-22T01:05:26;8.32;;;6.30;;
21979;SDS011;11154;48.558;9.234;2023-06-22T01:07:31;9.07;;;6.25;;
21979;SDS011;11154;48.558;9.234;2023-06-22T01:09:38;9.07;;;6.10;;
21979;SDS011;11154;48.558;9.234;2023-06-22T01:11:51;8.73;;;6.35;;
21979;SDS011;11154;48.558;9.234;2023-06-22T01:14:00;12.57;;;6.40;;
21979;SDS011;11154;48.558;9.234;2023-06-22T01:16:08;11.15;;;6.80;;
21979;SDS011;11154;48.558;9.234;2023-06-22T01:18:17;9.15;;;6.75;;
21979;SDS011;11154;48.558;9.234;2023-06-22T01:20:20;9.48;;;6.38;;
21979;SDS011;11154;48.558;9.234;2023-06-22T01:22:24;9.60;;;6.78;;
21979;SDS011;11154;48.558;9.234;2023-06-22T01:24:30;8.60;;;6.15;;
21979;SDS011;11154;48.558;9.234;2023-06-22T01:26:37;10.00;;;7.13;;
21979;SDS011;11154;48.558;9.234;2023-06-22T01:28:44;10.20;;;6.03;;
21979;SDS011;11154;48.558;9.234;2023-06-22T01:30:47;13.27;;;7.05;;
21979;SDS011;11154;48.558;9.234;2023-06-22T01:33:05;9.10;;;6.35;;
21979;SDS011;11154;48.558;9.234;2023-06-22T01:35:07;10.27;;;6.97;;
21979;SDS011;11154;48.558;9.234;2023-06-22T01:37:10;12.05;;;6.88;;
21979;SDS011;11154;48.558;9.234;2023-06-22T01:39:13;10.07;;;6.57;;
21979;SDS011;11154;48.558;9.234;2023-06-22T01:41:16;10.05;;;6.70;;
21979;SDS011;11154;48.558;9.234;2023-06-22T01:43:18;10.82;;;6.90;;
21979;SDS011;11154;48.558;9.234;2023-06-22T01:45:24;8.93;;;6.60;;
21979;SDS011;11154;48.558;9.234;2023-06-22T01:47:27;10.82;;;6.70;;
21979;SDS011;11154;48.558;9.234;2023-06-22T01:49:29;8.68;;;6.47;;
21979;SDS011;11154;48.558;9.234;2023-06-22T01:51:31;11.73;;;7.03;;
21979;SDS011;11154;48.558;9.234;2023-06-22T01:53:33;9.18;;;6.93;;
21979;SDS011;11154;48.558;9.234;2023-06-22T01:55:35;10.48;;;6.95;;
21979;SDS011;11154;48.558;9.234;2023-06-22T01:57:36;9.57;;;6.93;;
21979;SDS011;11154;48.558;9.234;2023-06-22T01:59:42;9.52;;;7.10;;
21979;SDS011;11154;48.558;9.234;2023-06-22T02:03:57;10.00;;;6.32;;
21979;SDS011;11154;48.558;9.234;2023-06-22T02:06:05;9.93;;;6.95;;
21979;SDS011;11154;48.558;9.234;2023-06-22T02:08:09;9.98;;;6.82;;
21979;SDS011;11154;48.558;9.234;2023-06-22T02:10:16;11.57;;;6.57;;
21979;SDS011;11154;48.558;9.234;2023-06-22T02:12:21;9.95;;;7.32;;
21979;SDS011;11154;48.558;9.234;2023-06-22T02:14:27;8.40;;;6.70;;
21979;SDS011;11154;48.558;9.234;2023-06-22T02:16:30;10.93;;;7.25;;
21979;SDS011;11154;48.558;9.234;2023-06-22T02:18:34;10.07;;;6.80;;
21979;SDS011;11154;48.558;9.234;2023-06-22T02:20:37;12.95;;;7.00;;
21979;SDS011;11154;48.558;9.234;2023-06-22T02:22:39;10.18;;;6.45;;
21979;SDS011;11154;48.558;9.234;2023-06-22T02:24:40;9.52;;;6.43;;
21979;SDS011;11154;48.558;9.234;2023-06-22T02:26:42;9.25;;;6.85;;
21979;SDS011;11154;48.558;9.234;2023-06-22T02:28:45;11.20;;;6.85;;
21979;SDS011;11154;48.558;9.234;2023-06-22T02:30:47;9.75;;;6.60;;
21979;SDS011;11154;48.558;9.234;2023-06-22T02:32:48;8.07;;;6.75;;
21979;SDS011;11154;48.558;9.234;2023-06-22T02:35:00;10.02;;;6.50;;
21979;SDS011;11154;48.558;9.234;2023-06-22T02:37:04;7.78;;;6.53;;
21979;SDS011;11154;48.558;9.234;2023-06-22T02:39:05;7.70;;;6.90;;
21979;SDS011;11154;48.558;9.234;2023-06-22T02:41:07;11.50;;;6.75;;
21979;SDS011;11154;48.558;9.234;2023-06-22T02:43:13;14.35;;;6.75;;
21979;SDS011;11154;48.558;9.234;2023-06-22T02:45:14;9.65;;;6.22;;
21979;SDS011;11154;48.558;9.234;2023-06-22T02:47:16;12.98;;;7.32;;
21979;SDS011;11154;48.558;9.234;2023-06-22T02:49:18;9.27;;;6.43;;
21979;SDS011;11154;48.558;9.234;2023-06-22T02:51:21;11.07;;;7.10;;
21979;SDS011;11154;48.558;9.234;2023-06-22T02:53:22;8.15;;;6.88;;
21979;SDS011;11154;48.558;9.234;2023-06-22T02:55:24;13.68;;;7.93;;
21979;SDS011;11154;48.558;9.234;2023-06-22T02:57:26;10.73;;;7.85;;
21979;SDS011;11154;48.558;9.234;2023-06-22T02:59:27;11.38;;;7.78;;
21979;SDS011;11154;48.558;9.234;2023-06-22T03:01:29;11.27;;;7.88;;
21979;SDS011;11154;48.558;9.234;2023-06-22T03:03:37;10.85;;;7.88;;
21979;SDS011;11154;48.558;9.234;2023-06-22T03:05:39;10.32;;;7.75;;
21979;SDS011;11154;48.558;9.234;2023-06-22T03:07:42;9.98;;;7.78;;
21979;SDS011;11154;48.558;9.234;2023-06-22T03:09:44;10.50;;;7.60;;
21979;SDS011;11154;48.558;9.234;2023-06-22T03:11:46;10.70;;;8.00;;
21979;SDS011;11154;48.558;9.234;2023-06-22T03:13:47;8.70;;;7.28;;
21979;SDS011;11154;48.558;9.234;2023-06-22T03:15:49;9.68;;;7.85;;
21979;SDS011;11154;48.558;9.234;2023-06-22T03:17:51;10.70;;;7.85;;
21979;SDS011;11154;48.558;9.234;2023-06-22T03:19:52;9.68;;;6.40;;
21979;SDS011;11154;48.558;9.234;2023-06-22T03:21:54;11.38;;;7.18;;
21979;SDS011;11154;48.558;9.234;2023-06-22T03:23:57;10.00;;;7.13;;
21979;SDS011;11154;48.558;9.234;2023-06-22T03:25:58;9.80;;;7.32;;
21979;SDS011;11154;48.558;9.234;2023-06-22T03:28:00;10.52;;;6.82;;
21979;SDS011;11154;48.558;9.234;2023-06-22T03:30:02;11.25;;;6.85;;
21979;SDS011;11154;48.558;9.234;2023-06-22T03:32:04;9.48;;;7.22;;
21979;SDS011;11154;48.558;9.234;2023-06-22T03:34:06;9.13;;;7.20;;
21979;SDS011;11154;48.558;9.234;2023-06-22T03:36:08;10.57;;;8.38;;
21979;SDS011;11154;48.558;9.234;2023-06-22T03:38:10;18.75;;;8.13;;
21979;SDS011;11154;48.558;9.234;2023-06-22T03:40:13;11.35;;;8.00;;
21979;SDS011;11154;48.558;9.234;2023-06-22T03:42:14;11.20;;;8.43;;
21979;SDS011;11154;48.558;9.234;2023-06-22T03:44:16;15.77;;;8.10;;
21979;SDS011;11154;48.558;9.234;2023-06-22T03:46:17;11.60;;;8.13;;
21979;SDS011;11154;48.558;9.234;2023-06-22T03:48:20;13.85;;;8.05;;
21979;SDS011;11154;48.558;9.234;2023-06-22T03:50:21;16.95;;;8.32;;
21979;SDS011;11154;48.558;9.234;2023-06-22T03:52:23;11.70;;;7.45;;
21979;SDS011;11154;48.558;9.234;2023-06-22T03:54:25;14.82;;;8.02;;
21979;SDS011;11154;48.558;9.234;2023-06-22T03:56:29;11.88;;;8.07;;
21979;SDS011;11154;48.558;9.234;2023-06-22T03:58:31;12.15;;;8.02;;
21979;SDS011;11154;48.558;9.234;2023-06-22T04:00:33;13.90;;;8.85;;
21979;SDS011;11154;48.558;9.234;2023-06-22T04:02:35;12.75;;;8.05;;
21979;SDS011;11154;48.558;9.234;2023-06-22T04:04:36;11.25;;;8.02;;
21979;SDS011;11154;48.558;9.234;2023-06-22T04:06:39;13.95;;;8.32;;
21979;SDS011;11154;48.558;9.234;2023-06-22T04:08:40;13.25;;;8.20;;
21979;SDS011;11154;48.558;9.234;2023-06-22T04:10:42;10.07;;;8.07;;
21979;SDS011;11154;48.558;9.234;2023-06-22T04:12:45;10.55;;;8.15;;
21979;SDS011;11154;48.558;9.234;2023-06-22T04:14:48;8.80;;;7.68;;
21979;SDS011;11154;48.558;9.234;2023-06-22T04:16:50;10.05;;;8.10;;
21979;SDS011;11154;48.558;9.234;2023-06-22T04:18:52;10.93;;;7.88;;
21979;SDS011;11154;48.558;9.234;2023-06-22T04:20:54;10.63;;;8.40;;
21979;SDS011;11154;48.558;9.234;2023-06-22T04:22:56;10.70;;;8.68;;
21979;SDS011;11154;48.558;9.234;2023-06-22T04:24:57;10.73;;;7.63;;
21979;SDS011;11154;48.558;9.234;2023-06-22T04:26:59;11.45;;;7.85;;
21979;SDS011;11154;48.558;9.234;2023-06-22T04:29:04;12.18;;;8.75;;
21979;SDS011;11154;48.558;9.234;2023-06-22T04:31:06;12.20;;;8.05;;
21979;SDS011;11154;48.558;9.234;2023-06-22T04:33:07;11.05;;;7.88;;
21979;SDS011;11154;48.558;9.234;2023-06-22T04:35:09;10.07;;;8.13;;
21979;SDS011;11154;48.558;9.234;2023-06-22T04:37:11;12.32;;;8.13;;
21979;SDS011;11154;48.558;9.234;2023-06-22T04:39:15;13.13;;;8.18;;
21979;SDS011;11154;48.558;9.234;2023-06-22T04:41:17;11.32;;;8.07;;
21979;SDS011;11154;48.558;9.234;2023-06-22T04:43:23;12.57;;;8.32;;
21979;SDS011;11154;48.558;9.234;2023-06-22T04:45:26;10.30;;;7.95;;
21979;SDS011;11154;48.558;9.234;2023-06-22T04:47:28;12.02;;;7.85;;
21979;SDS011;11154;48.558;9.234;2023-06-22T04:49:29;11.75;;;8.20;;
21979;SDS011;11154;48.558;9.234;2023-06-22T04:51:34;11.10;;;7.72;;
21979;SDS011;11154;48.558;9.234;2023-06-22T04:53:36;9.95;;;7.85;;
21979;SDS011;11154;48.558;9.234;2023-06-22T04:55:37;12.75;;;8.50;;
21979;SDS011;11154;48.558;9.234;2023-06-22T04:57:41;9.13;;;7.90;;
21979;SDS011;11154;48.558;9.234;2023-06-22T04:59:48;8.68;;;7.60;;
21979;SDS011;11154;48.558;9.234;2023-06-22T05:01:51;12.27;;;8.07;;
21979;SDS011;11154;48.558;9.234;2023-06-22T05:03:53;10.05;;;7.82;;
21979;SDS011;11154;48.558;9.234;2023-06-22T05:05:57;14.38;;;8.70;;
21979;SDS011;11154;48.558;9.234;2023-06-22T05:08:00;13.70;;;7.88;;
21979;SDS011;11154;48.558;9.234;2023-06-22T05:10:03;15.65;;;8.07;;
21979;SDS011;11154;48.558;9.234;2023-06-22T05:12:05;11.38;;;8.35;;
21979;SDS011;11154;48.558;9.234;2023-06-22T05:14:08;9.68;;;8.18;;
21979;SDS011;11154;48.558;9.234;2023-06-22T05:16:09;11.90;;;7.90;;
21979;SDS011;11154;48.558;9.234;2023-06-22T05:18:12;10.40;;;8.02;;
21979;SDS011;11154;48.558;9.234;2023-06-22T05:20:14;18.27;;;11.18;;
21979;SDS011;11154;48.558;9.234;2023-06-22T05:22:18;17.48;;;10.13;;
21979;SDS011;11154;48.558;9.234;2023-06-22T05:24:19;13.80;;;9.07;;
21979;SDS011;11154;48.558;9.234;2023-06-22T05:26:21;10.65;;;7.97;;
21979;SDS011;11154;48.558;9.234;2023-06-22T05:28:23;13.27;;;8.23;;
21979;SDS011;11154;48.558;9.234;2023-06-22T05:30:24;9.32;;;7.30;;
21979;SDS011;11154;48.558;9.234;2023-06-22T05:32:26;12.95;;;8.18;;
21979;SDS011;11154;48.558;9.234;2023-06-22T05:34:29;12.00;;;7.20;;
21979;SDS011;11154;48.558;9.234;2023-06-22T05:36:30;9.20;;;6.82;;
21979;SDS011;11154;48.558;9.234;2023-06-22T05:38:32;9.88;;;6.55;;
21979;SDS011;11154;48.558;9.234;2023-06-22T05:40:34;13.75;;;7.40;;
21979;SDS011;11154;48.558;9.234;2023-06-22T05:42:35;10.65;;;6.80;;
21979;SDS011;11154;48.558;9.234;2023-06-22T05:44:37;9.07;;;6.93;;
21979;SDS011;11154;48.558;9.234;2023-06-22T05:46:40;11.50;;;6.78;;
21979;SDS011;11154;48.558;9.234;2023-06-22T05:48:44;10.18;;;6.57;;
21979;SDS011;11154;48.558;9.234;2023-06-22T05:50:47;13.00;;;7.10;;
21979;SDS011;11154;48.558;9.234;2023-06-22T05:52:48;10.40;;;6.90;;
21979;SDS011;11154;48.558;9.234;2023-06-22T05:54:50;8.52;;;6.28;;
21979;SDS011;11154;48.558;9.234;2023-06-22T05:56:52;10.02;;;6.80;;
21979;SDS011;11154;48.558;9.234;2023-06-22T05:58:53;8.98;;;6.65;;
21979;SDS011;11154;48.558;9.234;2023-06-22T06:00:55;9.35;;;7.05;;
21979;SDS011;11154;48.558;9.234;2023-06-22T06:02:56;10.23;;;6.70;;
21979;SDS011;11154;48.558;9.234;2023-06-22T06:05:03;8.30;;;6.00;;
21979;SDS011;11154;48.558;9.234;2023-06-22T06:07:07;9.10;;;6.00;;
21979;SDS011;11154;48.558;9.234;2023-06-22T06:09:08;9.20;;;6.18;;
21979;SDS011;11154;48.558;9.234;2023-06-22T06:11:11;9.80;;;6.28;;
21979;SDS011;11154;48.558;9.234;2023-06-22T06:13:13;10.07;;;6.15;;
21979;SDS011;11154;48.558;9.234;2023-06-22T06:15:14;7.25;;;5.85;;
21979;SDS011;11154;48.558;9.234;2023-06-22T06:17:16;11.98;;;5.85;;
21979;SDS011;11154;48.558;9.234;2023-06-22T06:19:17;11.98;;;5.85;;
21979;SDS011;11154;48.558;9.234;2023-06-22T06:21:19;7.07;;;5.47;;
21979;SDS011;11154;48.558;9.234;2023-06-22T06:23:22;7.47;;;5.65;;
21979;SDS011;11154;48.558;9.234;2023-06-22T06:25:24;10.57;;;5.45;;
21979;SDS011;11154;48.558;9.234;2023-06-22T06:27:26;9.55;;;5.80;;
21979;SDS011;11154;48.558;9.234;2023-06-22T06:29:29;8.27;;;5.90;;
21979;SDS011;11154;48.558;9.234;2023-06-22T06:31:30;7.68;;;5.35;;
21979;SDS011;11154;48.558;9.234;2023-06-22T06:33:32;8.00;;;5.50;;
21979;SDS011;11154;48.558;9.234;2023-06-22T06:35:34;9.27;;;5.70;;
21979;SDS011;11154;48.558;9.234;2023-06-22T06:37:36;10.23;;;5.55;;
21979;SDS011;11154;48.558;9.234;2023-06-22T06:39:40;11.23;;;5.45;;
21979;SDS011;11154;48.558;9.234;2023-06-22T06:41:42;7.82;;;4.90;;
21979;SDS011;11154;48.558;9.234;2023-06-22T06:43:43;12.68;;;5.60;;
21979;SDS011;11154;48.558;9.234;2023-06-22T06:45:46;8.90;;;5.38;;
21979;SDS011;11154;48.558;9.234;2023-06-22T06:47:47;9.75;;;5.50;;
21979;SDS011;11154;48.558;9.234;2023-06-22T06:49:50;8.63;;;5.30;;
21979;SDS011;11154;48.558;9.234;2023-06-22T06:51:52;7.97;;;5.47;;
21979;SDS011;11154;48.558;9.234;2023-06-22T06:53:53;6.55;;;4.78;;
21979;SDS011;11154;48.558;9.234;2023-06-22T06:55:56;7.40;;;4.97;;
21979;SDS011;11154;48.558;9.234;2023-06-22T06:57:58;7.60;;;4.60;;
21979;SDS011;11154;48.558;9.234;2023-06-22T07:00:00;7.68;;;4.50;;
21979;SDS011;11154;48.558;9.234;2023-06-22T07:02:02;7.32;;;4.93;;
21979;SDS011;11154;48.558;9.234;2023-06-22T07:04:04;8.02;;;4.60;;
21979;SDS011;11154;48.558;9.234;2023-06-22T07:06:06;8.20;;;4.47;;
21979;SDS011;11154;48.558;9.234;2023-06-22T07:08:08;8.80;;;5.10;;
21979;SDS011;11154;48.558;9.234;2023-06-22T07:10:10;7.55;;;4.63;;
21979;SDS011;11154;48.558;9.234;2023-06-22T07:12:13;7.53;;;4.68;;
21979;SDS011;11154;48.558;9.234;2023-06-22T07:14:15;8.25;;;4.50;;
21979;SDS011;11154;48.558;9.234;2023-06-22T07:16:17;11.75;;;5.40;;
21979;SDS011;11154;48.558;9.234;2023-06-22T07:18:19;8.43;;;4.57;;
21979;SDS011;11154;48.558;9.234;2023-06-22T07:20:21;9.50;;;4.30;;
21979;SDS011;11154;48.558;9.234;2023-06-22T07:22:22;8.25;;;4.80;;
21979;SDS011;11154;48.558;9.234;2023-06-22T07:24:24;7.95;;;4.50;;
21979;SDS011;11154;48.558;9.234;2023-06-22T07:26:26;14.98;;;5.47;;
21979;SDS011;11154;48.558;9.234;2023-06-22T07:28:28;9.15;;;5.70;;
21979;SDS011;11154;48.558;9.234;2023-06-22T07:30:31;8.10;;;4.65;;
21979;SDS011;11154;48.558;9.234;2023-06-22T07:32:34;8.95;;;5.10;;
21979;SDS011;11154;48.558;9.234;2023-06-22T07:34:36;9.23;;;4.90;;
21979;SDS011;11154;48.558;9.234;2023-06-22T07:36:38;7.30;;;4.57;;
21979;SDS011;11154;48.558;9.234;2023-06-22T07:38:40;10.27;;;4.53;;
21979;SDS011;11154;48.558;9.234;2023-06-22T07:40:41;7.10;;;4.47;;
21979;SDS011;11154;48.558;9.234;2023-06-22T07:42:44;10.73;;;5.82;;
21979;SDS011;11154;48.558;9.234;2023-06-22T07:44:49;10.60;;;6.10;;
21979;SDS011;11154;48.558;9.234;2023-06-22T07:46:51;10.32;;;5.70;;
21979;SDS011;11154;48.558;9.234;2023-06-22T07:48:53;11.70;;;5.45;;
21979;SDS011;11154;48.558;9.234;2023-06-22T07:50:54;9.75;;;4.90;;
21979;SDS011;11154;48.558;9.234;2023-06-22T07:52:56;9.95;;;4.95;;
21979;SDS011;11154;48.558;9.234;2023-06-22T07:54:58;11.02;;;4.47;;
21979;SDS011;11154;48.558;9.234;2023-06-22T07:57:00;10.80;;;5.32;;
21979;SDS011;11154;48.558;9.234;2023-06-22T07:59:01;13.93;;;5.07;;
21979;SDS011;11154;48.558;9.234;2023-06-22T08:01:05;11.25;;;5.10;;
21979;SDS011;11154;48.558;9.234;2023-06-22T08:03:07;8.90;;;4.75;;
21979;SDS011;11154;48.558;9.234;2023-06-22T08:05:09;10.00;;;5.07;;
21979;SDS011;11154;48.558;9.234;2023-06-22T08:07:11;8.13;;;5.00;;
21979;SDS011;11154;48.558;9.234;2023-06-22T08:09:13;6.25;;;4.43;;
21979;SDS011;11154;48.558;9.234;2023-06-22T08:11:14;9.20;;;5.30;;
21979;SDS011;11154;48.558;9.234;2023-06-22T08:13:16;10.63;;;4.82;;
21979;SDS011;11154;48.558;9.234;2023-06-22T08:15:18;12.07;;;5.72;;
21979;SDS011;11154;48.558;9.234;2023-06-22T08:17:21;11.43;;;4.93;;
21979;SDS011;11154;48.558;9.234;2023-06-22T08:19:22;9.05;;;4.72;;
21979;SDS011;11154;48.558;9.234;2023-06-22T08:21:24;13.70;;;5.35;;
21979;SDS011;11154;48.558;9.234;2023-06-22T08:23:26;7.05;;;5.10;;
21979;SDS011;11154;48.558;9.234;2023-06-22T08:25:27;14.68;;;5.80;;
21979;SDS011;11154;48.558;9.234;2023-06-22T08:27:29;11.00;;;5.45;;
21979;SDS011;11154;48.558;9.234;2023-06-22T08:29:32;10.32;;;4.65;;
21979;SDS011;11154;48.558;9.234;2023-06-22T08:31:34;8.38;;;4.10;;
21979;SDS011;11154;48.558;9.234;2023-06-22T08:33:37;7.53;;;4.68;;
21979;SDS011;11154;48.558;9.234;2023-06-22T08:35:39;9.50;;;4.82;;
21979;SDS011;11154;48.558;9.234;2023-06-22T08:37:40;11.20;;;4.38;;
21979;SDS011;11154;48.558;9.234;2023-06-22T08:39:42;11.80;;;5.00;;
21979;SDS011;11154;48.558;9.234;2023-06-22T08:41:44;6.43;;;4.18;;
21979;SDS011;11154;48.558;9.234;2023-06-22T08:43:46;12.35;;;4.53;;
21979;SDS011;11154;48.558;9.234;2023-06-22T08:45:47;7.53;;;4.35;;
21979;SDS011;11154;48.558;9.234;2023-06-22T08:47:49;10.10;;;4.53;;
21979;SDS011;11154;48.558;9.234;2023-06-22T08:49:52;8.10;;;4.03;;
21979;SDS011;11154;48.558;9.234;2023-06-22T08:51:54;9.75;;;4.63;;
21979;SDS011;11154;48.558;9.234;2023-06-22T08:53:56;9.52;;;4.60;;
21979;SDS011;11154;48.558;9.234;2023-06-22T08:55:58;10.82;;;4.72;;
21979;SDS011;11154;48.558;9.234;2023-06-22T08:58:00;11.90;;;4.60;;
21979;SDS011;11154;48.558;9.234;2023-06-22T09:00:01;10.13;;;4.68;;
21979;SDS011;11154;48.558;9.234;2023-06-22T09:02:07;14.00;;;4.90;;
21979;SDS011;11154;48.558;9.234;2023-06-22T09:04:09;8.70;;;4.53;;
21979;SDS011;11154;48.558;9.234;2023-06-22T09:06:13;10.18;;;5.22;;
21979;SDS011;11154;48.558;9.234;2023-06-22T09:08:16;11.30;;;4.97;;
21979;SDS011;11154;48.558;9.234;2023-06-22T09:10:18;11.60;;;4.65;;
21979;SDS011;11154;48.558;9.234;2023-06-22T09:12:20;10.32;;;4.97;;
21979;SDS011;11154;48.558;9.234;2023-06-22T09:14:25;9.40;;;4.65;;
21979;SDS011;11154;48.558;9.234;2023-06-22T09:16:27;12.85;;;4.25;;
21979;SDS011;11154;48.558;9.234;2023-06-22T09:18:29;10.25;;;4.53;;
21979;SDS011;11154;48.558;9.234;2023-06-22T09:20:30;8.60;;;4.63;;
21979;SDS011;11154;48.558;9.234;2023-06-22T09:22:33;11.25;;;4.60;;
21979;SDS011;11154;48.558;9.234;2023-06-22T09:24:35;12.63;;;4.68;;
21979;SDS011;11154;48.558;9.234;2023-06-22T09:26:37;9.93;;;5.35;;
21979;SDS011;11154;48.558;9.234;2023-06-22T09:28:39;10.45;;;4.35;;
21979;SDS011;11154;48.558;9.234;2023-06-22T09:30:42;10.23;;;4.55;;
21979;SDS011;11154;48.558;9.234;2023-06-22T09:32:44;9.77;;;4.78;;
21979;SDS011;11154;48.558;9.234;2023-06-22T09:34:46;7.65;;;4.82;;
21979;SDS011;11154;48.558;9.234;2023-06-22T09:36:47;13.48;;;4.85;;
21979;SDS011;11154;48.558;9.234;2023-06-22T09:38:50;10.63;;;4.60;;
21979;SDS011;11154;48.558;9.234;2023-06-22T09:40:58;10.30;;;5.20;;
21979;SDS011;11154;48.558;9.234;2023-06-22T09:43:00;10.25;;;4.53;;
21979;SDS011;11154;48.558;9.234;2023-06-22T09:45:01;15.57;;;5.15;;
21979;SDS011;11154;48.558;9.234;2023-06-22T09:47:03;14.18;;;5.35;;
21979;SDS011;11154;48.558;9.234;2023-06-22T09:49:05;10.25;;;4.80;;
21979;SDS011;11154;48.558;9.234;2023-06-22T09:51:07;9.25;;;4.80;;
21979;SDS011;11154;48.558;9.234;2023-06-22T09:53:08;11.00;;;5.15;;
21979;SDS011;11154;48.558;9.234;2023-06-22T09:55:11;21.38;;;4.93;;
21979;SDS011;11154;48.558;9.234;2023-06-22T09:57:15;12.13;;;4.63;;
21979;SDS011;11154;48.558;9.234;2023-06-22T09:59:17;9.30;;;4.80;;
21979;SDS011;11154;48.558;9.234;2023-06-22T10:01:18;7.82;;;4.80;;
21979;SDS011;11154;48.558;9.234;2023-06-22T10:03:20;12.52;;;4.88;;
21979;SDS011;11154;48.558;9.234;2023-06-22T10:05:23;9.98;;;4.85;;
21979;SDS011;11154;48.558;9.234;2023-06-22T10:07:24;10.73;;;4.78;;
21979;SDS011;11154;48.558;9.234;2023-06-22T10:09:26;7.10;;;4.45;;
21979;SDS011;11154;48.558;9.234;2023-06-22T10:11:29;9.90;;;5.13;;
21979;SDS011;11154;48.558;9.234;2023-06-22T10:13:31;6.40;;;4.47;;
21979;SDS011;11154;48.558;9.234;2023-06-22T10:15:33;10.07;;;4.65;;
21979;SDS011;11154;48.558;9.234;2023-06-22T10:17:34;14.38;;;5.10;;
21979;SDS011;11154;48.558;9.234;2023-06-22T10:19:36;10.43;;;4.90;;
21979;SDS011;11154;48.558;9.234;2023-06-22T10:21:38;10.15;;;4.80;;
21979;SDS011;11154;48.558;9.234;2023-06-22T10:23:40;13.00;;;5.15;;
21979;SDS011;11154;48.558;9.234;2023-06-22T10:25:41;9.18;;;5.13;;
21979;SDS011;11154;48.558;9.234;2023-06-22T10:27:44;9.35;;;4.60;;
21979;SDS011;11154;48.558;9.234;2023-06-22T10:29:46;10.20;;;4.82;;
21979;SDS011;11154;48.558;9.234;2023-06-22T10:31:47;10.38;;;5.18;;
21979;SDS011;11154;48.558;9.234;2023-06-22T10:33:49;15.07;;;5.20;;
21979;SDS011;11154;48.558;9.234;2023-06-22T10:35:51;10.90;;;4.97;;
21979;SDS011;11154;48.558;9.234;2023-06-22T10:37:52;10.20;;;4.78;;
21979;SDS011;11154;48.558;9.234;2023-06-22T10:39:54;10.52;;;4.65;;
21979;SDS011;11154;48.558;9.234;2023-06-22T10:41:56;11.18;;;4.93;;
21979;SDS011;11154;48.558;9.234;2023-06-22T10:43:59;10.30;;;4.78;;
21979;SDS011;11154;48.558;9.234;2023-06-22T10:46:01;13.48;;;4.55;;
21979;SDS011;11154;48.558;9.234;2023-06-22T10:48:02;12.00;;;5.00;;
21979;SDS011;11154;48.558;9.234;2023-06-22T10:50:05;11.45;;;4.93;;
21979;SDS011;11154;48.558;9.234;2023-06-22T10:52:07;14.88;;;5.05;;
21979;SDS011;11154;48.558;9.234;2023-06-22T10:54:09;8.38;;;4.80;;
21979;SDS011;11154;48.558;9.234;2023-06-22T10:56:13;12.65;;;5.47;;
21979;SDS011;11154;48.558;9.234;2023-06-22T10:58:15;10.75;;;5.05;;
21979;SDS011;11154;48.558;9.234;2023-06-22T11:00:18;14.95;;;5.43;;
21979;SDS011;11154;48.558;9.234;2023-06-22T11:02:21;11.05;;;5.07;;
21979;SDS011;11154;48.558;9.234;2023-06-22T11:04:22;18.27;;;5.90;;
21979;SDS011;11154;48.558;9.234;2023-06-22T11:06:24;10.77;;;5.85;;
21979;SDS011;11154;48.558;9.234;2023-06-22T11:08:26;8.38;;;4.63;;
21979;SDS011;11154;48.558;9.234;2023-06-22T11:10:27;12.85;;;5.13;;
21979;SDS011;11154;48.558;9.234;2023-06-22T11:12:29;10.57;;;5.43;;
21979;SDS011;11154;48.558;9.234;2023-06-22T11:14:31;10.15;;;5.18;;
21979;SDS011;11154;48.558;9.234;2023-06-22T11:16:35;11.50;;;5.20;;
21979;SDS011;11154;48.558;9.234;2023-06-22T11:18:36;12.80;;;4.78;;
21979;SDS011;11154;48.558;9.234;2023-06-22T11:20:38;17.63;;;4.68;;
21979;SDS011;11154;48.558;9.234;2023-06-22T11:22:41;11.10;;;5.18;;
21979;SDS011;11154;48.558;9.234;2023-06-22T11:24:42;12.65;;;4.80;;
21979;SDS011;11154;48.558;9.234;2023-06-22T11:26:44;13.20;;;4.72;;
21979;SDS011;11154;48.558;9.234;2023-06-22T11:28:46;11.45;;;5.25;;
21979;SDS011;11154;48.558;9.234;2023-06-22T11:30:47;11.75;;;4.63;;
21979;SDS011;11154;48.558;9.234;2023-06-22T11:32:51;15.32;;;4.90;;
21979;SDS011;11154;48.558;9.234;2023-06-22T11:34:52;10.98;;;4.78;;
21979;SDS011;11154;48.558;9.234;2023-06-22T11:36:54;11.10;;;4.47;;
21979;SDS011;11154;48.558;9.234;2023-06-22T11:38:55;14.30;;;4.85;;
21979;SDS011;11154;48.558;9.234;2023-06-22T11:40:57;14.20;;;4.25;;
21979;SDS011;11154;48.558;9.234;2023-06-22T11:42:59;12.25;;;4.88;;
21979;SDS011;11154;48.558;9.234;2023-06-22T11:45:00;15.15;;;4.97;;
21979;SDS011;11154;48.558;9.234;2023-06-22T11:47:05;12.38;;;4.93;;
21979;SDS011;11154;48.558;9.234;2023-06-22T11:49:08;13.40;;;5.43;;
21979;SDS011;11154;48.558;9.234;2023-06-22T11:51:09;12.20;;;4.60;;
21979;SDS011;11154;48.558;9.234;2023-06-22T11:53:11;13.73;;;5.35;;
21979;SDS011;11154;48.558;9.234;2023-06-22T11:55:16;13.82;;;4.95;;
21979;SDS011;11154;48.558;9.234;2023-06-22T11:57:18;8.75;;;4.90;;
21979;SDS011;11154;48.558;9.234;2023-06-22T11:59:19;12.25;;;4.93;;
21979;SDS011;11154;48.558;9.234;2023-06-22T12:01:22;11.45;;;4.95;;
21979;SDS011;11154;48.558;9.234;2023-06-22T12:03:23;11.38;;;5.13;;
21979;SDS011;11154;48.558;9.234;2023-06-22T12:05:26;8.60;;;4.30;;
21979;SDS011;11154;48.558;9.234;2023-06-22T12:07:28;10.15;;;4.38;;
21979;SDS011;11154;48.558;9.234;2023-06-22T12:09:29;12.27;;;4.80;;
21979;SDS011;11154;48.558;9.234;2023-06-22T12:11:31;12.75;;;4.85;;